sensor_id;sensor_type;location;lat;lon;timestamp;temperature;humidity
21310;DHT22;10814;51.722;8.772;2024-02-26T00:01:00;5.30;99.90
21310;DHT22;10814;51.722;8.772;2024-02-26T00:03:26;5.30;99.90
21310;DHT22;10814;51.722;8.772;2024-02-26T00:05:51;5.30;99.90
21310;DHT22;10814;51.722;8.772;2024-02-26T00:08:17;5.30;99.90
21310;DHT22;10814;51.722;8.772;2024-02-26T00:10:43;5.30;99.90
21310;DHT22;10814;51.722;8.772;2024-02-26T00:13:08;5.30;99.90
21310;DHT22;10814;51.722;8.772;2024-02-26T00:15:34;5.30;99.90
21310;DHT22;10814;51.722;8.772;2024-02-26T00:18:01;5.30;99.90
21310;DHT22;10814;51.722;8.772;2024-02-26T00:20:26;5.30;99.90
21310;DHT22;10814;51.722;8.772;2024-02-26T00:22:52;5.30;99.90
21310;DHT22;10814;51.722;8.772;2024-02-26T00:25:18;5.20;99.90
21310;DHT22;10814;51.722;8.772;2024-02-26T00:27:43;5.20;99.90
21310;DHT22;10814;51.722;8.772;2024-02-26T00:30:10;5.10;99.90
21310;DHT22;10814;51.722;8.772;2024-02-26T00:32:35;5.00;99.90
21310;DHT22;10814;51.722;8.772;2024-02-26T00:35:01;5.00;99.90
21310;DHT22;10814;51.722;8.772;2024-02-26T00:37:27;5.00;99.90
21310;DHT22;10814;51.722;8.772;2024-02-26T00:39:52;5.00;99.90
21310;DHT22;10814;51.722;8.772;2024-02-26T00:42:19;5.10;99.90
21310;DHT22;10814;51.722;8.772;2024-02-26T00:44:45;5.10;99.90
21310;DHT22;10814;51.722;8.772;2024-02-26T00:47:10;5.10;99.90
21310;DHT22;10814;51.722;8.772;2024-02-26T00:49:37;5.20;99.90
21310;DHT22;10814;51.722;8.772;2024-02-26T00:52:03;5.20;99.90
21310;DHT22;10814;51.722;8.772;2024-02-26T00:54:28;5.20;99.90
21310;DHT22;10814;51.722;8.772;2024-02-26T00:56:54;5.20;99.90
21310;DHT22;10814;51.722;8.772;2024-02-26T00:59:20;5.20;99.90
21310;DHT22;10814;51.722;8.772;2024-02-26T01:01:45;5.20;99.90
21310;DHT22;10814;51.722;8.772;2024-02-26T01:04:11;5.20;99.90
21310;DHT22;10814;51.722;8.772;2024-02-26T01:06:37;5.20;99.90
21310;DHT22;10814;51.722;8.772;2024-02-26T01:09:03;5.20;99.90
21310;DHT22;10814;51.722;8.772;2024-02-26T01:11:29;5.20;99.90
21310;DHT22;10814;51.722;8.772;2024-02-26T01:13:54;5.20;99.90
21310;DHT22;10814;51.722;8.772;2024-02-26T01:16:22;5.10;99.90
21310;DHT22;10814;51.722;8.772;2024-02-26T01:18:48;5.10;99.90
21310;DHT22;10814;51.722;8.772;2024-02-26T01:21:14;5.00;99.90
21310;DHT22;10814;51.722;8.772;2024-02-26T01:23:40;5.10;99.90
21310;DHT22;10814;51.722;8.772;2024-02-26T01:26:05;5.10;99.90
21310;DHT22;10814;51.722;8.772;2024-02-26T01:28:31;5.10;99.90
21310;DHT22;10814;51.722;8.772;2024-02-26T01:30:57;5.20;99.90
21310;DHT22;10814;51.722;8.772;2024-02-26T01:33:25;5.30;99.90
21310;DHT22;10814;51.722;8.772;2024-02-26T01:35:50;5.40;99.90
21310;DHT22;10814;51.722;8.772;2024-02-26T01:38:16;5.50;99.90
21310;DHT22;10814;51.722;8.772;2024-02-26T01:40:41;5.50;99.90
21310;DHT22;10814;51.722;8.772;2024-02-26T01:43:07;5.70;99.90
21310;DHT22;10814;51.722;8.772;2024-02-26T01:45:33;5.70;99.90
21310;DHT22;10814;51.722;8.772;2024-02-26T01:47:58;5.80;99.90
21310;DHT22;10814;51.722;8.772;2024-02-26T01:50:24;5.90;99.90
21310;DHT22;10814;51.722;8.772;2024-02-26T01:52:51;5.90;99.90
21310;DHT22;10814;51.722;8.772;2024-02-26T01:55:18;5.90;99.90
21310;DHT22;10814;51.722;8.772;2024-02-26T01:57:46;5.90;99.90
21310;DHT22;10814;51.722;8.772;2024-02-26T02:00:14;6.00;99.90
21310;DHT22;10814;51.722;8.772;2024-02-26T02:02:42;6.00;99.90
21310;DHT22;10814;51.722;8.772;2024-02-26T02:05:10;6.00;99.90
21310;DHT22;10814;51.722;8.772;2024-02-26T02:07:37;6.10;99.90
21310;DHT22;10814;51.722;8.772;2024-02-26T02:10:03;6.10;99.90
21310;DHT22;10814;51.722;8.772;2024-02-26T02:12:30;6.10;99.90
21310;DHT22;10814;51.722;8.772;2024-02-26T02:14:58;6.10;99.90
21310;DHT22;10814;51.722;8.772;2024-02-26T02:17:24;6.20;99.90
21310;DHT22;10814;51.722;8.772;2024-02-26T02:19:49;6.20;99.90
21310;DHT22;10814;51.722;8.772;2024-02-26T02:22:15;6.20;99.90
21310;DHT22;10814;51.722;8.772;2024-02-26T02:24:40;6.30;99.90
21310;DHT22;10814;51.722;8.772;2024-02-26T02:27:06;6.30;99.90
21310;DHT22;10814;51.722;8.772;2024-02-26T02:29:32;6.30;99.90
21310;DHT22;10814;51.722;8.772;2024-02-26T02:31:57;6.30;99.90
21310;DHT22;10814;51.722;8.772;2024-02-26T02:34:24;6.30;99.90
21310;DHT22;10814;51.722;8.772;2024-02-26T02:36:54;6.40;99.90
21310;DHT22;10814;51.722;8.772;2024-02-26T02:39:20;6.40;99.90
21310;DHT22;10814;51.722;8.772;2024-02-26T02:41:46;6.40;99.90
21310;DHT22;10814;51.722;8.772;2024-02-26T02:44:11;6.40;99.90
21310;DHT22;10814;51.722;8.772;2024-02-26T02:46:37;6.50;99.90
21310;DHT22;10814;51.722;8.772;2024-02-26T02:49:03;6.40;99.90
21310;DHT22;10814;51.722;8.772;2024-02-26T02:51:29;6.50;99.90
21310;DHT22;10814;51.722;8.772;2024-02-26T02:53:54;6.50;99.90
21310;DHT22;10814;51.722;8.772;2024-02-26T02:56:20;6.50;99.90
21310;DHT22;10814;51.722;8.772;2024-02-26T02:58:45;6.40;99.90
21310;DHT22;10814;51.722;8.772;2024-02-26T03:01:13;6.50;99.90
21310;DHT22;10814;51.722;8.772;2024-02-26T03:03:38;6.50;99.90
21310;DHT22;10814;51.722;8.772;2024-02-26T03:06:04;6.50;99.90
21310;DHT22;10814;51.722;8.772;2024-02-26T03:08:29;6.50;99.90
21310;DHT22;10814;51.722;8.772;2024-02-26T03:10:55;6.50;99.90
21310;DHT22;10814;51.722;8.772;2024-02-26T03:13:21;6.50;99.90
21310;DHT22;10814;51.722;8.772;2024-02-26T03:15:47;6.60;99.90
21310;DHT22;10814;51.722;8.772;2024-02-26T03:18:12;6.50;99.90
21310;DHT22;10814;51.722;8.772;2024-02-26T03:20:38;6.50;99.90
21310;DHT22;10814;51.722;8.772;2024-02-26T03:23:04;6.50;99.90
21310;DHT22;10814;51.722;8.772;2024-02-26T03:25:29;6.50;99.90
21310;DHT22;10814;51.722;8.772;2024-02-26T03:27:55;6.50;99.90
21310;DHT22;10814;51.722;8.772;2024-02-26T03:30:20;6.50;99.90
21310;DHT22;10814;51.722;8.772;2024-02-26T03:32:46;6.50;99.90
21310;DHT22;10814;51.722;8.772;2024-02-26T03:35:13;6.60;99.90
21310;DHT22;10814;51.722;8.772;2024-02-26T03:37:38;6.60;99.90
21310;DHT22;10814;51.722;8.772;2024-02-26T03:40:04;6.60;99.90
21310;DHT22;10814;51.722;8.772;2024-02-26T03:42:30;6.60;99.90
21310;DHT22;10814;51.722;8.772;2024-02-26T03:44:55;6.60;99.90
21310;DHT22;10814;51.722;8.772;2024-02-26T03:47:21;6.50;99.90
21310;DHT22;10814;51.722;8.772;2024-02-26T03:49:47;6.60;99.90
21310;DHT22;10814;51.722;8.772;2024-02-26T03:52:13;6.60;99.90
21310;DHT22;10814;51.722;8.772;2024-02-26T03:54:38;6.60;99.90
21310;DHT22;10814;51.722;8.772;2024-02-26T03:57:04;6.60;99.90
21310;DHT22;10814;51.722;8.772;2024-02-26T03:59:29;6.60;99.90
21310;DHT22;10814;51.722;8.772;2024-02-26T04:01:55;6.60;99.90
21310;DHT22;10814;51.722;8.772;2024-02-26T04:04:21;6.70;99.90
21310;DHT22;10814;51.722;8.772;2024-02-26T04:06:47;6.70;99.90
21310;DHT22;10814;51.722;8.772;2024-02-26T04:09:16;6.60;99.90
21310;DHT22;10814;51.722;8.772;2024-02-26T04:11:41;6.70;99.90
21310;DHT22;10814;51.722;8.772;2024-02-26T04:14:08;6.70;99.90
21310;DHT22;10814;51.722;8.772;2024-02-26T04:16:37;6.70;99.90
21310;DHT22;10814;51.722;8.772;2024-02-26T04:19:02;6.70;99.90
21310;DHT22;10814;51.722;8.772;2024-02-26T04:21:28;6.70;99.90
21310;DHT22;10814;51.722;8.772;2024-02-26T04:23:53;6.70;99.90
21310;DHT22;10814;51.722;8.772;2024-02-26T04:26:21;6.80;99.90
21310;DHT22;10814;51.722;8.772;2024-02-26T04:28:47;6.90;99.90
21310;DHT22;10814;51.722;8.772;2024-02-26T04:31:12;6.90;99.90
21310;DHT22;10814;51.722;8.772;2024-02-26T04:33:38;6.90;99.90
21310;DHT22;10814;51.722;8.772;2024-02-26T04:36:04;6.90;99.90
21310;DHT22;10814;51.722;8.772;2024-02-26T04:38:29;6.90;99.90
21310;DHT22;10814;51.722;8.772;2024-02-26T04:40:55;6.90;99.90
21310;DHT22;10814;51.722;8.772;2024-02-26T04:43:21;6.90;99.90
21310;DHT22;10814;51.722;8.772;2024-02-26T04:45:46;6.90;99.90
21310;DHT22;10814;51.722;8.772;2024-02-26T04:48:12;6.90;99.90
21310;DHT22;10814;51.722;8.772;2024-02-26T04:50:37;6.90;99.90
21310;DHT22;10814;51.722;8.772;2024-02-26T04:53:03;6.90;99.90
21310;DHT22;10814;51.722;8.772;2024-02-26T04:55:29;6.90;99.90
21310;DHT22;10814;51.722;8.772;2024-02-26T04:57:54;6.90;99.90
21310;DHT22;10814;51.722;8.772;2024-02-26T05:00:20;6.90;99.90
21310;DHT22;10814;51.722;8.772;2024-02-26T05:02:45;6.90;99.90
21310;DHT22;10814;51.722;8.772;2024-02-26T05:05:11;6.90;99.90
21310;DHT22;10814;51.722;8.772;2024-02-26T05:07:41;6.90;99.90
21310;DHT22;10814;51.722;8.772;2024-02-26T05:10:10;6.90;99.90
21310;DHT22;10814;51.722;8.772;2024-02-26T05:12:36;6.90;99.90
21310;DHT22;10814;51.722;8.772;2024-02-26T05:15:02;7.00;99.90
21310;DHT22;10814;51.722;8.772;2024-02-26T05:17:28;7.00;99.90
21310;DHT22;10814;51.722;8.772;2024-02-26T05:19:54;6.90;99.90
21310;DHT22;10814;51.722;8.772;2024-02-26T05:22:20;6.90;99.90
21310;DHT22;10814;51.722;8.772;2024-02-26T05:24:45;7.00;99.90
21310;DHT22;10814;51.722;8.772;2024-02-26T05:27:11;7.00;99.90
21310;DHT22;10814;51.722;8.772;2024-02-26T05:29:37;7.10;99.90
21310;DHT22;10814;51.722;8.772;2024-02-26T05:32:04;7.00;99.90
21310;DHT22;10814;51.722;8.772;2024-02-26T05:34:30;7.10;99.90
21310;DHT22;10814;51.722;8.772;2024-02-26T05:36:55;7.00;99.90
21310;DHT22;10814;51.722;8.772;2024-02-26T05:39:21;7.10;99.90
21310;DHT22;10814;51.722;8.772;2024-02-26T05:41:47;7.10;99.90
21310;DHT22;10814;51.722;8.772;2024-02-26T05:44:12;7.10;99.90
21310;DHT22;10814;51.722;8.772;2024-02-26T05:46:38;7.10;99.90
21310;DHT22;10814;51.722;8.772;2024-02-26T05:49:04;7.10;99.90
21310;DHT22;10814;51.722;8.772;2024-02-26T05:51:29;7.10;99.90
21310;DHT22;10814;51.722;8.772;2024-02-26T05:53:55;7.10;99.90
21310;DHT22;10814;51.722;8.772;2024-02-26T05:56:22;7.10;99.90
21310;DHT22;10814;51.722;8.772;2024-02-26T05:58:47;7.20;99.90
21310;DHT22;10814;51.722;8.772;2024-02-26T06:01:16;7.10;99.90
21310;DHT22;10814;51.722;8.772;2024-02-26T06:03:42;7.20;99.90
21310;DHT22;10814;51.722;8.772;2024-02-26T06:06:10;7.20;99.90
21310;DHT22;10814;51.722;8.772;2024-02-26T06:08:36;7.20;99.90
21310;DHT22;10814;51.722;8.772;2024-02-26T06:11:05;7.20;99.90
21310;DHT22;10814;51.722;8.772;2024-02-26T06:13:32;7.20;99.90
21310;DHT22;10814;51.722;8.772;2024-02-26T06:15:57;7.20;99.90
21310;DHT22;10814;51.722;8.772;2024-02-26T06:18:23;7.20;99.90
21310;DHT22;10814;51.722;8.772;2024-02-26T06:20:49;7.10;99.90
21310;DHT22;10814;51.722;8.772;2024-02-26T06:23:15;7.10;99.90
21310;DHT22;10814;51.722;8.772;2024-02-26T06:25:41;7.10;99.90
21310;DHT22;10814;51.722;8.772;2024-02-26T06:28:08;7.10;99.90
21310;DHT22;10814;51.722;8.772;2024-02-26T06:30:37;7.10;99.90
21310;DHT22;10814;51.722;8.772;2024-02-26T06:33:02;7.10;99.90
21310;DHT22;10814;51.722;8.772;2024-02-26T06:35:28;7.10;99.90
21310;DHT22;10814;51.722;8.772;2024-02-26T06:37:54;7.10;99.90
21310;DHT22;10814;51.722;8.772;2024-02-26T06:40:19;7.10;99.90
21310;DHT22;10814;51.722;8.772;2024-02-26T06:42:45;7.10;99.90
21310;DHT22;10814;51.722;8.772;2024-02-26T06:45:11;7.10;99.90
21310;DHT22;10814;51.722;8.772;2024-02-26T06:47:36;7.00;99.90
21310;DHT22;10814;51.722;8.772;2024-02-26T06:50:02;7.00;99.90
21310;DHT22;10814;51.722;8.772;2024-02-26T06:52:28;7.00;99.90
21310;DHT22;10814;51.722;8.772;2024-02-26T06:54:54;7.10;99.90
21310;DHT22;10814;51.722;8.772;2024-02-26T06:57:22;7.10;99.90
21310;DHT22;10814;51.722;8.772;2024-02-26T06:59:48;7.10;99.90
21310;DHT22;10814;51.722;8.772;2024-02-26T07:02:14;7.10;99.90
21310;DHT22;10814;51.722;8.772;2024-02-26T07:04:40;7.10;99.90
21310;DHT22;10814;51.722;8.772;2024-02-26T07:07:07;7.20;99.90
21310;DHT22;10814;51.722;8.772;2024-02-26T07:09:33;7.10;99.90
21310;DHT22;10814;51.722;8.772;2024-02-26T07:11:58;7.10;99.90
21310;DHT22;10814;51.722;8.772;2024-02-26T07:14:24;7.10;99.90
21310;DHT22;10814;51.722;8.772;2024-02-26T07:16:52;7.10;99.90
21310;DHT22;10814;51.722;8.772;2024-02-26T07:19:18;7.10;99.90
21310;DHT22;10814;51.722;8.772;2024-02-26T07:21:43;7.10;99.90
21310;DHT22;10814;51.722;8.772;2024-02-26T07:24:09;7.10;99.90
21310;DHT22;10814;51.722;8.772;2024-02-26T07:26:34;7.10;99.90
21310;DHT22;10814;51.722;8.772;2024-02-26T07:29:00;7.10;99.90
21310;DHT22;10814;51.722;8.772;2024-02-26T07:31:26;7.10;99.90
21310;DHT22;10814;51.722;8.772;2024-02-26T07:33:52;7.10;99.90
21310;DHT22;10814;51.722;8.772;2024-02-26T07:36:17;7.10;99.90
21310;DHT22;10814;51.722;8.772;2024-02-26T07:38:43;7.20;99.90
21310;DHT22;10814;51.722;8.772;2024-02-26T07:41:08;7.20;99.90
21310;DHT22;10814;51.722;8.772;2024-02-26T07:43:34;7.20;99.90
21310;DHT22;10814;51.722;8.772;2024-02-26T07:46:00;7.30;99.90
21310;DHT22;10814;51.722;8.772;2024-02-26T07:48:26;7.30;99.90
21310;DHT22;10814;51.722;8.772;2024-02-26T07:50:51;7.30;99.90
21310;DHT22;10814;51.722;8.772;2024-02-26T07:53:17;7.30;99.90
21310;DHT22;10814;51.722;8.772;2024-02-26T07:55:43;7.30;99.90
21310;DHT22;10814;51.722;8.772;2024-02-26T07:58:08;7.30;99.90
21310;DHT22;10814;51.722;8.772;2024-02-26T08:00:34;7.40;99.90
21310;DHT22;10814;51.722;8.772;2024-02-26T08:03:00;7.40;99.90
21310;DHT22;10814;51.722;8.772;2024-02-26T08:05:26;7.50;99.90
21310;DHT22;10814;51.722;8.772;2024-02-26T08:07:51;7.50;99.90
21310;DHT22;10814;51.722;8.772;2024-02-26T08:10:17;7.60;99.90
21310;DHT22;10814;51.722;8.772;2024-02-26T08:12:42;7.60;99.90
21310;DHT22;10814;51.722;8.772;2024-02-26T08:15:08;7.70;99.90
21310;DHT22;10814;51.722;8.772;2024-02-26T08:17:34;7.70;99.90
21310;DHT22;10814;51.722;8.772;2024-02-26T08:20:00;7.80;99.90
21310;DHT22;10814;51.722;8.772;2024-02-26T08:22:26;7.80;99.90
21310;DHT22;10814;51.722;8.772;2024-02-26T08:24:51;7.90;99.90
21310;DHT22;10814;51.722;8.772;2024-02-26T08:27:17;7.90;99.90
21310;DHT22;10814;51.722;8.772;2024-02-26T08:29:43;7.90;99.90
21310;DHT22;10814;51.722;8.772;2024-02-26T08:32:08;8.00;99.90
21310;DHT22;10814;51.722;8.772;2024-02-26T08:34:34;8.00;99.90
21310;DHT22;10814;51.722;8.772;2024-02-26T08:36:59;8.10;99.90
21310;DHT22;10814;51.722;8.772;2024-02-26T08:39:25;8.10;99.90
21310;DHT22;10814;51.722;8.772;2024-02-26T08:41:51;8.20;99.90
21310;DHT22;10814;51.722;8.772;2024-02-26T08:44:17;8.20;99.90
21310;DHT22;10814;51.722;8.772;2024-02-26T08:46:43;8.40;99.90
21310;DHT22;10814;51.722;8.772;2024-02-26T08:49:08;8.50;99.90
21310;DHT22;10814;51.722;8.772;2024-02-26T08:54:20;8.70;99.90
21310;DHT22;10814;51.722;8.772;2024-02-26T08:56:46;8.90;99.90
21310;DHT22;10814;51.722;8.772;2024-02-26T08:59:12;9.10;99.90
21310;DHT22;10814;51.722;8.772;2024-02-26T09:01:37;9.30;99.90
21310;DHT22;10814;51.722;8.772;2024-02-26T09:04:03;9.50;99.90
21310;DHT22;10814;51.722;8.772;2024-02-26T09:06:29;9.50;99.90
21310;DHT22;10814;51.722;8.772;2024-02-26T09:08:54;9.70;99.90
21310;DHT22;10814;51.722;8.772;2024-02-26T09:11:24;9.90;99.90
21310;DHT22;10814;51.722;8.772;2024-02-26T09:13:49;10.10;99.90
21310;DHT22;10814;51.722;8.772;2024-02-26T09:16:15;10.30;99.90
21310;DHT22;10814;51.722;8.772;2024-02-26T09:18:41;10.60;99.90
21310;DHT22;10814;51.722;8.772;2024-02-26T09:21:06;10.80;99.90
21310;DHT22;10814;51.722;8.772;2024-02-26T09:23:32;11.00;99.90
21310;DHT22;10814;51.722;8.772;2024-02-26T09:25:58;11.20;99.90
21310;DHT22;10814;51.722;8.772;2024-02-26T09:28:23;11.40;99.90
21310;DHT22;10814;51.722;8.772;2024-02-26T09:30:49;11.60;99.90
21310;DHT22;10814;51.722;8.772;2024-02-26T09:33:16;11.70;99.90
21310;DHT22;10814;51.722;8.772;2024-02-26T09:35:42;11.80;99.90
21310;DHT22;10814;51.722;8.772;2024-02-26T09:38:07;11.80;99.90
21310;DHT22;10814;51.722;8.772;2024-02-26T09:40:33;11.80;99.90
21310;DHT22;10814;51.722;8.772;2024-02-26T09:43:04;11.80;99.90
21310;DHT22;10814;51.722;8.772;2024-02-26T09:45:30;11.90;99.90
21310;DHT22;10814;51.722;8.772;2024-02-26T09:47:58;11.80;99.90
21310;DHT22;10814;51.722;8.772;2024-02-26T09:50:24;12.00;99.90
21310;DHT22;10814;51.722;8.772;2024-02-26T09:52:51;12.10;99.90
21310;DHT22;10814;51.722;8.772;2024-02-26T09:55:17;12.30;99.90
21310;DHT22;10814;51.722;8.772;2024-02-26T09:57:45;12.40;99.90
21310;DHT22;10814;51.722;8.772;2024-02-26T10:00:17;12.30;99.90
21310;DHT22;10814;51.722;8.772;2024-02-26T10:02:45;12.60;99.90
21310;DHT22;10814;51.722;8.772;2024-02-26T10:05:12;12.50;99.90
21310;DHT22;10814;51.722;8.772;2024-02-26T10:07:39;12.40;99.90
21310;DHT22;10814;51.722;8.772;2024-02-26T10:10:05;12.50;99.90
21310;DHT22;10814;51.722;8.772;2024-02-26T10:12:32;12.70;99.90
21310;DHT22;10814;51.722;8.772;2024-02-26T10:14:58;12.50;99.90
21310;DHT22;10814;51.722;8.772;2024-02-26T10:17:24;12.60;99.90
21310;DHT22;10814;51.722;8.772;2024-02-26T10:19:50;12.50;99.90
21310;DHT22;10814;51.722;8.772;2024-02-26T10:22:17;12.30;99.90
21310;DHT22;10814;51.722;8.772;2024-02-26T10:24:42;12.30;99.90
21310;DHT22;10814;51.722;8.772;2024-02-26T10:27:08;12.20;99.90
21310;DHT22;10814;51.722;8.772;2024-02-26T10:29:37;12.00;99.90
21310;DHT22;10814;51.722;8.772;2024-02-26T10:32:03;11.70;99.90
21310;DHT22;10814;51.722;8.772;2024-02-26T10:34:29;11.60;99.90
21310;DHT22;10814;51.722;8.772;2024-02-26T10:36:56;11.50;99.90
21310;DHT22;10814;51.722;8.772;2024-02-26T10:39:24;11.60;99.90
21310;DHT22;10814;51.722;8.772;2024-02-26T10:41:50;11.60;99.90
21310;DHT22;10814;51.722;8.772;2024-02-26T10:44:15;11.80;99.90
21310;DHT22;10814;51.722;8.772;2024-02-26T10:46:44;11.90;99.90
21310;DHT22;10814;51.722;8.772;2024-02-26T10:49:15;12.10;99.90
21310;DHT22;10814;51.722;8.772;2024-02-26T10:51:45;12.10;99.90
21310;DHT22;10814;51.722;8.772;2024-02-26T10:54:15;12.00;99.90
21310;DHT22;10814;51.722;8.772;2024-02-26T10:56:42;11.80;99.90
21310;DHT22;10814;51.722;8.772;2024-02-26T10:59:09;11.60;99.90
21310;DHT22;10814;51.722;8.772;2024-02-26T11:01:36;11.50;99.90
21310;DHT22;10814;51.722;8.772;2024-02-26T11:04:06;11.30;99.90
21310;DHT22;10814;51.722;8.772;2024-02-26T11:06:33;11.20;99.90
21310;DHT22;10814;51.722;8.772;2024-02-26T11:09:01;11.10;99.90
21310;DHT22;10814;51.722;8.772;2024-02-26T11:11:27;11.00;99.90
21310;DHT22;10814;51.722;8.772;2024-02-26T11:13:56;10.90;99.90
21310;DHT22;10814;51.722;8.772;2024-02-26T11:16:22;10.80;99.90
21310;DHT22;10814;51.722;8.772;2024-02-26T11:18:48;10.70;99.90
21310;DHT22;10814;51.722;8.772;2024-02-26T11:21:18;10.60;99.90
21310;DHT22;10814;51.722;8.772;2024-02-26T11:23:45;10.60;99.90
21310;DHT22;10814;51.722;8.772;2024-02-26T11:26:13;10.60;99.90
21310;DHT22;10814;51.722;8.772;2024-02-26T11:28:40;10.60;99.90
21310;DHT22;10814;51.722;8.772;2024-02-26T11:31:07;10.50;99.90
21310;DHT22;10814;51.722;8.772;2024-02-26T11:33:36;10.50;99.90
21310;DHT22;10814;51.722;8.772;2024-02-26T11:36:08;10.50;99.90
21310;DHT22;10814;51.722;8.772;2024-02-26T11:38:35;10.50;99.90
21310;DHT22;10814;51.722;8.772;2024-02-26T11:41:01;10.50;99.90
21310;DHT22;10814;51.722;8.772;2024-02-26T11:43:49;10.50;99.90
21310;DHT22;10814;51.722;8.772;2024-02-26T11:46:32;10.50;99.90
21310;DHT22;10814;51.722;8.772;2024-02-26T11:51:55;10.50;99.90
21310;DHT22;10814;51.722;8.772;2024-02-26T11:59:47;10.50;99.90
21310;DHT22;10814;51.722;8.772;2024-02-26T12:05:09;10.50;99.90
21310;DHT22;10814;51.722;8.772;2024-02-26T12:07:39;10.50;99.90
21310;DHT22;10814;51.722;8.772;2024-02-26T12:12:58;10.50;99.90
21310;DHT22;10814;51.722;8.772;2024-02-26T12:15:30;10.50;99.90
21310;DHT22;10814;51.722;8.772;2024-02-26T12:17:56;10.50;99.90
21310;DHT22;10814;51.722;8.772;2024-02-26T12:20:22;10.40;99.90
21310;DHT22;10814;51.722;8.772;2024-02-26T12:22:49;10.40;99.90
21310;DHT22;10814;51.722;8.772;2024-02-26T12:25:21;10.50;99.90
21310;DHT22;10814;51.722;8.772;2024-02-26T12:27:47;10.50;99.90
21310;DHT22;10814;51.722;8.772;2024-02-26T12:30:13;10.60;99.90
21310;DHT22;10814;51.722;8.772;2024-02-26T12:32:39;10.60;99.90
21310;DHT22;10814;51.722;8.772;2024-02-26T12:35:05;10.60;99.90
21310;DHT22;10814;51.722;8.772;2024-02-26T12:37:32;10.60;99.90
21310;DHT22;10814;51.722;8.772;2024-02-26T12:39:58;10.60;99.90
21310;DHT22;10814;51.722;8.772;2024-02-26T12:42:23;10.60;99.90
21310;DHT22;10814;51.722;8.772;2024-02-26T12:44:50;10.60;99.90
21310;DHT22;10814;51.722;8.772;2024-02-26T12:47:17;10.60;99.90
21310;DHT22;10814;51.722;8.772;2024-02-26T12:49:47;10.60;99.90
21310;DHT22;10814;51.722;8.772;2024-02-26T12:52:13;10.60;99.90
21310;DHT22;10814;51.722;8.772;2024-02-26T12:54:39;10.60;99.90
21310;DHT22;10814;51.722;8.772;2024-02-26T12:57:06;10.60;99.90
21310;DHT22;10814;51.722;8.772;2024-02-26T12:59:34;10.70;99.90
21310;DHT22;10814;51.722;8.772;2024-02-26T13:02:02;10.80;99.90
21310;DHT22;10814;51.722;8.772;2024-02-26T13:04:29;10.80;99.90
21310;DHT22;10814;51.722;8.772;2024-02-26T13:06:56;10.70;99.90
21310;DHT22;10814;51.722;8.772;2024-02-26T13:09:26;10.70;99.90
21310;DHT22;10814;51.722;8.772;2024-02-26T13:11:55;10.70;99.90
21310;DHT22;10814;51.722;8.772;2024-02-26T13:14:21;10.60;99.90
21310;DHT22;10814;51.722;8.772;2024-02-26T13:16:57;10.60;99.90
21310;DHT22;10814;51.722;8.772;2024-02-26T13:19:23;10.50;99.90
21310;DHT22;10814;51.722;8.772;2024-02-26T13:21:49;10.50;99.90
21310;DHT22;10814;51.722;8.772;2024-02-26T13:24:15;10.50;99.90
21310;DHT22;10814;51.722;8.772;2024-02-26T13:26:45;10.50;99.90
21310;DHT22;10814;51.722;8.772;2024-02-26T13:29:17;10.50;99.90
21310;DHT22;10814;51.722;8.772;2024-02-26T13:31:54;10.50;99.90
21310;DHT22;10814;51.722;8.772;2024-02-26T13:34:27;10.50;99.90
21310;DHT22;10814;51.722;8.772;2024-02-26T13:36:53;10.50;99.90
21310;DHT22;10814;51.722;8.772;2024-02-26T13:39:27;10.40;99.90
21310;DHT22;10814;51.722;8.772;2024-02-26T13:41:53;10.40;99.90
21310;DHT22;10814;51.722;8.772;2024-02-26T13:44:20;10.30;99.90
21310;DHT22;10814;51.722;8.772;2024-02-26T13:46:46;10.30;99.90
21310;DHT22;10814;51.722;8.772;2024-02-26T13:49:12;10.30;99.90
21310;DHT22;10814;51.722;8.772;2024-02-26T13:51:41;10.30;99.90
21310;DHT22;10814;51.722;8.772;2024-02-26T13:54:07;10.40;99.90
21310;DHT22;10814;51.722;8.772;2024-02-26T13:56:33;10.40;99.90
21310;DHT22;10814;51.722;8.772;2024-02-26T13:58:59;10.40;99.90
21310;DHT22;10814;51.722;8.772;2024-02-26T14:01:25;10.40;99.90
21310;DHT22;10814;51.722;8.772;2024-02-26T14:03:51;10.40;99.90
21310;DHT22;10814;51.722;8.772;2024-02-26T14:06:16;10.40;99.90
21310;DHT22;10814;51.722;8.772;2024-02-26T14:08:42;10.40;99.90
21310;DHT22;10814;51.722;8.772;2024-02-26T14:11:08;10.40;99.90
21310;DHT22;10814;51.722;8.772;2024-02-26T14:13:33;10.30;99.90
21310;DHT22;10814;51.722;8.772;2024-02-26T14:15:59;10.30;99.90
21310;DHT22;10814;51.722;8.772;2024-02-26T14:18:25;10.30;99.90
21310;DHT22;10814;51.722;8.772;2024-02-26T14:20:50;10.30;99.90
21310;DHT22;10814;51.722;8.772;2024-02-26T14:23:17;10.30;99.90
21310;DHT22;10814;51.722;8.772;2024-02-26T14:25:42;10.40;99.90
21310;DHT22;10814;51.722;8.772;2024-02-26T14:28:08;10.30;99.90
21310;DHT22;10814;51.722;8.772;2024-02-26T14:30:34;10.30;99.90
21310;DHT22;10814;51.722;8.772;2024-02-26T14:33:00;10.20;99.90
21310;DHT22;10814;51.722;8.772;2024-02-26T14:35:28;10.20;99.90
21310;DHT22;10814;51.722;8.772;2024-02-26T14:37:57;10.10;99.90
21310;DHT22;10814;51.722;8.772;2024-02-26T14:40:26;10.00;99.90
21310;DHT22;10814;51.722;8.772;2024-02-26T14:42:51;9.90;99.90
21310;DHT22;10814;51.722;8.772;2024-02-26T14:45:17;9.90;99.90
21310;DHT22;10814;51.722;8.772;2024-02-26T14:47:43;9.90;99.90
21310;DHT22;10814;51.722;8.772;2024-02-26T14:50:08;9.90;99.90
21310;DHT22;10814;51.722;8.772;2024-02-26T14:52:34;9.80;99.90
21310;DHT22;10814;51.722;8.772;2024-02-26T14:55:00;9.80;99.90
21310;DHT22;10814;51.722;8.772;2024-02-26T14:57:25;9.80;99.90
21310;DHT22;10814;51.722;8.772;2024-02-26T14:59:51;9.80;99.90
21310;DHT22;10814;51.722;8.772;2024-02-26T15:02:17;9.70;99.90
21310;DHT22;10814;51.722;8.772;2024-02-26T15:04:43;9.80;99.90
21310;DHT22;10814;51.722;8.772;2024-02-26T15:07:10;9.80;99.90
21310;DHT22;10814;51.722;8.772;2024-02-26T15:09:37;9.80;99.90
21310;DHT22;10814;51.722;8.772;2024-02-26T15:12:03;9.70;99.90
21310;DHT22;10814;51.722;8.772;2024-02-26T15:14:32;9.70;99.90
21310;DHT22;10814;51.722;8.772;2024-02-26T15:16:57;9.70;99.90
21310;DHT22;10814;51.722;8.772;2024-02-26T15:19:23;9.60;99.90
21310;DHT22;10814;51.722;8.772;2024-02-26T15:21:49;9.60;99.90
21310;DHT22;10814;51.722;8.772;2024-02-26T15:24:15;9.60;99.90
21310;DHT22;10814;51.722;8.772;2024-02-26T15:26:42;9.60;99.90
21310;DHT22;10814;51.722;8.772;2024-02-26T15:29:08;9.60;99.90
21310;DHT22;10814;51.722;8.772;2024-02-26T15:31:39;9.60;99.90
21310;DHT22;10814;51.722;8.772;2024-02-26T15:34:05;9.60;99.90
21310;DHT22;10814;51.722;8.772;2024-02-26T15:36:31;9.60;99.90
21310;DHT22;10814;51.722;8.772;2024-02-26T15:38:56;9.50;99.90
21310;DHT22;10814;51.722;8.772;2024-02-26T15:41:22;9.60;99.90
21310;DHT22;10814;51.722;8.772;2024-02-26T15:43:48;9.60;99.90
21310;DHT22;10814;51.722;8.772;2024-02-26T15:46:14;9.50;99.90
21310;DHT22;10814;51.722;8.772;2024-02-26T15:48:50;9.60;99.90
21310;DHT22;10814;51.722;8.772;2024-02-26T15:51:23;9.50;99.90